Terminal Aerodrome Forecast
Issued by NWS Pocatello, ID

Home | Current Version | Previous Version | Text Only | Print | Product List | Glossary On
Versions: 1 2 3 4 5 6 7 8 9 10 11 12 13 14 15 16 17 18 19 20
567
FTUS45 KPIH 191408 AAA
TAFIDA
TAF AMD
KIDA 191408Z 1914/2012 21016KT P6SM VCSH SCT015 BKN025 OVC080
      TEMPO 1914/1916 BKN015 OVC025
     FM191800 23024G34KT P6SM SCT030 BKN080
     FM200300 20012KT P6SM SCT040 SCT080=

USA.gov is the U.S. government's official web portal to all federal, state and local government web resources and services.